Terminal Aerodrome Forecast
Issued by NWS Wilmington, OH

Current Version | Previous Version | Graphics & Text | Print | Product List | Glossary On
Versions: 1 2 3 4 5 6 7 8 9 10 11 12 13 14 15 16 17 18 19
455
FTUS41 KILN 182020 AAA
TAFDAY
TAF AMD
KDAY 182020Z 1820/1918 16005KT P6SM VCTS SCT040CB BKN080
      TEMPO 1820/1822 2SM -TSRA OVC040CB
     FM190100 VRB03KT P6SM BKN100
     FM191000 VRB02KT P6SM VCSH OVC050
     FM191400 VRB04KT P6SM -SHRA OVC050=

USA.gov is the U.S. government's official web portal to all federal, state and local government web resources and services.